Creek Data

    Home     View Charts     View Raw Data     Messages

ID Distance Battery Voltage Battery Current Internal Temp Internal Humidity External Temp Solar Input rssi snr Time Stamp Record
32850 13.5 3.87 0 56 41 55 4.5 -78 5 02/19/2025 05:45 PM 14528
32849 13.5 3.88 0 58 41 55 4.5 -78 6 02/19/2025 05:30 PM 14527
32848 13.5 3.89 9 62 39 56 4.5 -78 6 02/19/2025 05:15 PM 14526
32847 13.5 3.93 56 63 38 58 4.5 -78 7 02/19/2025 05:00 PM 14525
32846 13.5 3.97 69 63 39 58 4.5 -76 7 02/19/2025 04:45 PM 14524
32845 13.5 3.93 0 64 39 58 5.1 -77 5 02/19/2025 04:15 PM 14522
32844 13.5 3.78 0 67 36 58 5.1 -78 6 02/19/2025 03:30 PM 14519
32843 13.5 3.78 0 69 33 60 5.1 -78 8 02/19/2025 03:15 PM 14518
32842 13.4 3.87 24 56 38 55 4.6 -77 5 02/19/2025 02:30 PM 14515
32841 13.4 3.78 0 56 38 55 5.1 -78 7 02/19/2025 02:15 PM 14514
32840 13.5 3.94 0 57 38 56 5.1 -78 6 02/19/2025 02:00 PM 14513
32839 13.4 3.93 52 55 38 55 4.5 -78 7 02/19/2025 01:45 PM 14512
32838 13.4 3.88 32 55 39 55 4.5 -76 5 02/19/2025 01:30 PM 14511
32837 13.4 3.88 33 55 38 55 4.5 -76 5 02/19/2025 01:15 PM 14510
32836 13.4 3.76 0 55 39 55 5.1 -76 6 02/19/2025 12:45 PM 14508
32835 13.4 3.77 0 55 38 55 5.1 -76 6 02/19/2025 12:30 PM 14507
32834 13.4 3.95 58 55 39 54 4.5 -77 5 02/19/2025 12:15 PM 14506
32833 13.4 3.95 59 55 39 55 4.5 -77 6 02/19/2025 12:00 PM 14505
32832 13.5 3.91 41 55 39 55 4.5 -78 5 02/19/2025 11:45 AM 14504
32831 13.5 3.91 54 56 39 55 4.5 -78 4 02/19/2025 11:30 AM 14503
32830 13.5 3.93 79 57 39 56 4.5 -79 8 02/19/2025 11:15 AM 14502
32829 13.4 3.90 52 59 38 58 4.5 -79 8 02/19/2025 11:00 AM 14501
32828 13.5 3.72 0 59 38 57 5.1 -79 8 02/19/2025 10:45 AM 14500
32827 13.5 3.76 0 60 37 58 5.1 -78 8 02/19/2025 10:30 AM 14499
32826 13.5 3.71 0 60 37 59 5.1 -78 7 02/19/2025 10:15 AM 14498